Flight Track Log - Related Links

Times and Time Zones

All times are in EDT time to prevent confusion due to time zone crossing. See the DAL1981 flight status page for this flight to view local times or setup timezone preferences in your user account.

Time Position Orientation Groundspeed Altitude Reporting Facility
EDT Latitude Longitude Course Direction KTS MPH feet Rate Location/Type
Tue 06:31:30 AM 42.7672 -73.8061 180° South 152 175 1,700  Level Boston Center
Tue 06:32:27 AM 42.8253 -73.8469 333° Northwest 264 304 4,200 3,231 Climbing Boston Center
Tue 06:33:27 AM 42.8786 -73.9164 316° Northwest 284 327 8,000 3,400 Climbing Boston Center
Tue 06:34:00 AM 42.4365 -74.2382 198° South  Level Estimated
Tue 06:34:27 AM 42.8981 -74.0075 286° West 278 320 11,000  Level Boston Center
Tue 06:35:00 AM 42.3581 -74.3466 200° South  Level Estimated
Tue 06:35:39 AM 42.8714 -74.1286 253° West 289 333 13,000  Level Boston Center
Tue 06:36:00 AM 42.2795 -74.4547 180° South  Level Estimated
Tue 06:36:39 AM 42.7525 -74.1367 183° South 300 345 16,100  Level Boston Center
Tue 06:37:39 AM 42.6464 -74.1194 173° South 339 390 17,800 2,000 Climbing Boston Center
Tue 06:38:39 AM 42.5322 -74.0967 172° South 393 452 20,100 2,250 Climbing Boston Center
Tue 06:39:39 AM 42.4178 -74.0769 173° South 416 479 22,300 1,950 Climbing Boston Center
Tue 06:40:39 AM 42.3036 -74.0514 171° South 421 484 24,000 850 Climbing Boston Center
Tue 06:41:39 AM 42.1889 -74.0428 177° South 421 484 24,000  Level Boston Center
Tue 06:42:39 AM 42.0742 -74.0483 182° South 421 484 24,000  Level Boston Center
Tue 06:43:39 AM 41.9622 -74.0119 166° South 413 475 24,000  Level Boston Center
Tue 06:44:39 AM 41.8675 -73.9175 143° Southeast 404 465 24,000  Level Boston Center
Tue 06:45:39 AM 41.7853 -73.8294 141° Southeast 410 472 24,000  Level Boston Center
Tue 06:47:17 AM 41.6061 -73.7953 172° South 381 438 24,000  Level New York Center
Tue 06:48:18 AM 41.5211 -73.8522 207° Southwest 367 422 24,000  Level New York Center
Tue 06:49:15 AM 41.4217 -73.9167 206° Southwest 383 441 24,000  Level New York Center
Tue 06:50:15 AM 41.3200 -73.9839 206° Southwest 394 453 24,000  Level New York Center
Tue 06:51:16 AM 41.2203 -74.0481 206° Southwest 406 467 24,000  Level New York Center
Tue 06:52:16 AM 41.1286 -74.1206 211° Southwest 411 473 24,000  Level New York Center
Tue 06:53:15 AM 41.0544 -74.2353 229° Southwest 402 463 24,000  Level New York Center
Tue 06:54:18 AM 40.9847 -74.3444 230° Southwest 402 463 24,000  Level New York Center
Tue 06:55:15 AM 40.9144 -74.4589 231° Southwest 402 463 24,000  Level New York Center
Tue 06:56:16 AM 40.8461 -74.5731 232° Southwest 402 463 24,000  Level New York Center
Tue 06:57:18 AM 40.7758 -74.6842 230° Southwest 402 463 24,000  Level New York Center
Tue 06:58:16 AM 40.7056 -74.7978 231° Southwest 402 463 24,000 555 Level New York Center
Tue 06:59:17 AM 40.6347 -74.9114 231° Southwest 402 463 25,100 1,587 Climbing New York Center
Tue 07:00:17 AM 40.5642 -75.0217 230° Southwest 402 463 27,200 1,412 Climbing New York Center
Tue 07:01:16 AM 40.4978 -75.1322 232° Southwest 402 463 27,900 407 Climbing New York Center
Tue 07:02:15 AM 40.4292 -75.2397 230° Southwest 397 457 28,000 50 Climbing New York Center
Tue 07:03:15 AM 40.3514 -75.3628 230° Southwest 397 457 28,000  Level New York Center
Tue 07:04:17 AM 40.2825 -75.4725 231° Southwest 403 464 28,000 98 Level New York Center
Tue 07:05:17 AM 40.2153 -75.5847 232° Southwest 403 464 28,200 1,017 Climbing New York Center
Tue 07:06:15 AM 40.1519 -75.7081 236° Southwest 408 470 30,000 1,916 Climbing New York Center
Tue 07:07:16 AM 40.0947 -75.8261 238° Southwest 403 464 32,000 1,488 Climbing New York Center
Tue 07:08:16 AM 40.0336 -75.9383 235° Southwest 396 456 33,000 1,000 Climbing New York Center
Tue 07:09:16 AM 39.9764 -76.0533 237° Southwest 390 449 34,000 504 Climbing New York Center
Tue 07:10:15 AM 39.9172 -76.1653 235° Southwest 385 443 34,000  Level New York Center
Tue 07:11:15 AM 39.8622 -76.2692 235° Southwest 385 443 34,000  Level New York Center
Tue 07:12:57 AM 39.7625 -76.4661 237° Southwest 380 437 34,000  Level Washington Center
Tue 07:13:57 AM 39.6950 -76.5894 235° Southwest 392 451 34,000  Level Washington Center
Tue 07:14:57 AM 39.6314 -76.7042 234° Southwest 397 457 34,000  Level Washington Center
Tue 07:15:57 AM 39.5700 -76.8219 236° Southwest 403 464 34,000  Level Washington Center
Tue 07:16:57 AM 39.5081 -76.9392 236° Southwest 403 464 34,000  Level Washington Center
Tue 07:17:57 AM 39.4319 -77.0372 225° Southwest 398 458 34,000  Level Washington Center
Tue 07:18:57 AM 39.3644 -77.1083 219° Southwest 392 451 34,000  Level Washington Center
Tue 07:19:57 AM 39.2608 -77.2186 220° Southwest 397 457 34,000  Level Washington Center
Tue 07:20:57 AM 39.1764 -77.3078 219° Southwest 402 463 34,000  Level Washington Center
Tue 07:21:57 AM 39.0894 -77.3994 219° Southwest 402 463 34,000  Level Washington Center
Tue 07:22:57 AM 39.0028 -77.4908 219° Southwest 407 468 34,000  Level Washington Center
Tue 07:23:57 AM 38.9264 -77.5714 219° Southwest 407 468 34,000  Level Washington Center
Tue 07:24:57 AM 38.8372 -77.6650 219° Southwest 407 468 34,000  Level Washington Center
Tue 07:25:57 AM 38.7397 -77.7581 217° Southwest 421 484 34,000  Level Washington Center
Tue 07:26:57 AM 38.6525 -77.8514 220° Southwest 426 490 34,000  Level Washington Center
Tue 07:27:57 AM 38.5794 -77.9658 231° Southwest 419 482 34,000  Level Washington Center
Tue 07:28:57 AM 38.5103 -78.0883 234° Southwest 419 482 34,000  Level Washington Center
Tue 07:29:57 AM 38.4408 -78.2081 234° Southwest 430 495 34,000  Level Washington Center
Tue 07:30:57 AM 38.3694 -78.3272 233° Southwest 430 495 34,000  Level Washington Center
Tue 07:31:57 AM 38.2978 -78.4492 233° Southwest 430 495 34,000  Level Washington Center
Tue 07:32:57 AM 38.2214 -78.5836 234° Southwest 424 488 34,000  Level Washington Center
Tue 07:33:57 AM 38.1517 -78.6997 233° Southwest 424 488 34,000  Level Washington Center
Tue 07:34:57 AM 38.0778 -78.8206 232° Southwest 429 494 34,000  Level Washington Center
Tue 07:35:57 AM 38.0122 -78.9283 232° Southwest 429 494 34,000  Level Washington Center
Tue 07:36:57 AM 37.9400 -79.0489 233° Southwest 429 494 34,000  Level Washington Center
Tue 07:37:57 AM 37.8592 -79.1689 230° Southwest 435 501 34,000  Level Washington Center
Tue 07:38:58 AM 37.7764 -79.2833 228° Southwest 441 507 34,000  Level Washington Center
Tue 07:39:57 AM 37.6831 -79.4072 226° Southwest 446 513 34,000  Level Washington Center
Tue 07:40:57 AM 37.6000 -79.5211 227° Southwest 451 519 34,000  Level Washington Center
Tue 07:41:57 AM 37.5169 -79.6372 228° Southwest 451 519 34,000  Level Washington Center
Tue 07:42:57 AM 37.4425 -79.7378 227° Southwest 451 519 34,000  Level Washington Center
Tue 07:43:57 AM 37.3481 -79.8714 228° Southwest 457 526 34,000  Level Washington Center
Tue 07:44:57 AM 37.2669 -79.9842 228° Southwest 452 520 34,000  Level Washington Center
Tue 07:46:29 AM 37.1475 -80.1408 226° Southwest 446 513 34,000  Level Atlanta Center
Tue 07:47:29 AM 37.0575 -80.2625 227° Southwest 441 507 34,000  Level Atlanta Center
Tue 07:48:29 AM 36.9733 -80.3756 227° Southwest 435 501 34,000  Level Atlanta Center
Tue 07:49:29 AM 36.8911 -80.4858 227° Southwest 435 501 34,000  Level Atlanta Center
Tue 07:50:29 AM 36.8067 -80.5983 227° Southwest 435 501 34,000  Level Atlanta Center
Tue 07:51:29 AM 36.7261 -80.7056 227° Southwest 435 501 34,000  Level Atlanta Center
Tue 07:52:29 AM 36.6417 -80.8150 226° Southwest 435 501 34,000  Level Atlanta Center
Tue 07:53:29 AM 36.5569 -80.9269 227° Southwest 435 501 34,000  Level Atlanta Center
Tue 07:54:29 AM 36.4722 -81.0414 227° Southwest 435 501 34,000  Level Atlanta Center
Tue 07:55:29 AM 36.3872 -81.1528 227° Southwest 435 501 34,000  Level Atlanta Center
Tue 07:56:29 AM 36.3042 -81.2614 227° Southwest 435 501 34,000  Level Atlanta Center
Tue 07:57:29 AM 36.2192 -81.3725 227° Southwest 440 506 34,000  Level Atlanta Center
Tue 07:58:29 AM 36.1358 -81.4833 227° Southwest 440 506 34,000  Level Atlanta Center
Tue 07:59:29 AM 36.0506 -81.5964 227° Southwest 440 506 34,000  Level Atlanta Center
Tue 08:00:29 AM 35.9692 -81.6989 226° Southwest 435 501 34,000  Level Atlanta Center
Tue 08:01:29 AM 35.8817 -81.8117 226° Southwest 440 506 34,000  Level Atlanta Center
Tue 08:02:29 AM 35.7981 -81.9164 225° Southwest 435 501 34,000 -650 Level Atlanta Center
Tue 08:03:29 AM 35.7164 -82.0233 227° Southwest 430 495 32,700 -1,500 Descending Atlanta Center
Tue 08:04:29 AM 35.6386 -82.1222 226° Southwest 435 501 31,000 -1,350 Descending Atlanta Center
Tue 08:05:29 AM 35.5506 -82.2317 225° Southwest 441 507 30,000 -950 Descending Atlanta Center
Tue 08:06:29 AM 35.4667 -82.3406 227° Southwest 446 513 29,100 -1,050 Descending Atlanta Center
Tue 08:07:29 AM 35.3806 -82.4492 226° Southwest 440 506 27,900 -1,250 Descending Atlanta Center
Tue 08:08:29 AM 35.2983 -82.5553 227° Southwest 434 499 26,600 -1,300 Descending Atlanta Center
Tue 08:09:29 AM 35.2119 -82.6611 225° Southwest 434 499 25,300 -1,200 Descending Atlanta Center
Tue 08:10:29 AM 35.1192 -82.7767 226° Southwest 435 501 24,200 -1,150 Descending Atlanta Center
Tue 08:11:29 AM 35.0367 -82.8794 226° Southwest 435 501 23,000 -1,350 Descending Atlanta Center
Tue 08:12:29 AM 34.9542 -82.9794 225° Southwest 425 489 21,500 -1,350 Descending Atlanta Center
Tue 08:13:29 AM 34.8819 -83.0639 224° Southwest 419 482 20,300 -1,050 Descending Atlanta Center
Tue 08:14:29 AM 34.8075 -83.1583 226° Southwest 400 460 19,400 -1,000 Descending Atlanta Center
Tue 08:15:29 AM 34.7186 -83.2706 226° Southwest 406 467 18,300 -700 Descending Atlanta Center
Tue 08:16:29 AM 34.6397 -83.3494 219° Southwest 412 474 18,000 -150 Descending Atlanta Center
Tue 08:17:29 AM 34.5378 -83.4411 217° Southwest 417 480 18,000  Level Atlanta Center
Tue 08:18:29 AM 34.4444 -83.5250 217° Southwest 423 487 18,000 -150 Level Atlanta Center
Tue 08:19:29 AM 34.3486 -83.6086 216° Southwest 423 487 17,700 -850 Descending Atlanta Center
Tue 08:20:29 AM 34.2592 -83.6919 218° Southwest 418 481 16,300 -1,400 Descending Atlanta Center
Tue 08:21:29 AM 34.1697 -83.7703 216° Southwest 418 481 14,900 -1,200 Descending Atlanta Center
Tue 08:22:29 AM 34.0800 -83.8506 217° Southwest 418 481 13,900 -1,340 Descending Atlanta Center
Tue 08:23:03 AM 34.0333 -83.9000 221° Southwest 396 456 12,800 -1,660 Descending Atlanta TRACON
Tue 08:24:03 AM 33.9667 -84.0000 231° Southwest 378 435 11,300 -947 Descending Atlanta TRACON
Tue 08:24:57 AM 33.9000 -84.0833 226° Southwest 374 430 11,000 -158 Descending Atlanta TRACON
Tue 08:25:57 AM 33.8333 -84.1833 231° Southwest 375 432 11,000  Level Atlanta TRACON
Tue 08:26:57 AM 33.7833 -84.2833 239° Southwest 318 366 11,000 -300 Level Atlanta TRACON
Tue 08:27:57 AM 33.7333 -84.3500 228° Southwest 241 277 10,400 -1,421 Descending Atlanta TRACON
Tue 08:28:51 AM 33.7333 -84.4167 270° West 240 276 8,300 -1,737 Descending Atlanta TRACON
Tue 08:29:51 AM 33.7333 -84.4833 270° West 232 267 7,100 -1,368 Descending Atlanta TRACON
Tue 08:30:45 AM 33.7333 -84.5667 270° West 218 251 5,700 -1,316 Descending Atlanta TRACON
Tue 08:31:45 AM 33.7333 -84.6333 270° West 221 254 4,600 -850 Descending Atlanta TRACON
Tue 08:32:45 AM 33.7167 -84.7000 253° West 222 255 4,000 -316 Descending Atlanta TRACON
Tue 08:33:39 AM 33.6667 -84.6833 164° South 188 216 4,000  Level Atlanta TRACON
Tue 08:34:39 AM 33.6500 -84.6333 112° Southeast 178 205 4,000 -300 Level Atlanta TRACON
Tue 08:35:39 AM 33.6500 -84.5833 90° East 177 204 3,400 -737 Descending Atlanta TRACON
Tue 08:36:33 AM 33.6500 -84.5333 90° East 155 178 2,600 -889 Descending Atlanta TRACON

Login

Don't have an account? Register now (free) for customized features, flight alerts, and more!